sensor_id;sensor_type;location;lat;lon;timestamp;pressure;altitude;pressure_sealevel;temperature;humidity
74578;BME280;63173;49.086;33.418;2023-04-25T00:01:16;100147.41;;;10.66;82.08
74578;BME280;63173;49.086;33.418;2023-04-25T00:03:42;100145.22;;;10.68;81.04
74578;BME280;63173;49.086;33.418;2023-04-25T00:06:07;100144.06;;;10.74;82.31
74578;BME280;63173;49.086;33.418;2023-04-25T00:08:33;100140.59;;;10.68;83.41
74578;BME280;63173;49.086;33.418;2023-04-25T00:10:59;100146.22;;;10.77;81.78
74578;BME280;63173;49.086;33.418;2023-04-25T00:13:25;100138.94;;;10.72;82.42
74578;BME280;63173;49.086;33.418;2023-04-25T00:15:51;100143.84;;;10.70;80.55
74578;BME280;63173;49.086;33.418;2023-04-25T00:18:18;100135.84;;;10.79;81.55
74578;BME280;63173;49.086;33.418;2023-04-25T00:20:44;100128.88;;;10.73;81.43
74578;BME280;63173;49.086;33.418;2023-04-25T00:23:13;100129.41;;;10.75;81.20
74578;BME280;63173;49.086;33.418;2023-04-25T00:25:46;100130.41;;;10.79;80.31
74578;BME280;63173;49.086;33.418;2023-04-25T00:28:12;100125.50;;;10.81;80.65
74578;BME280;63173;49.086;33.418;2023-04-25T00:30:39;100120.22;;;10.89;79.07
74578;BME280;63173;49.086;33.418;2023-04-25T00:33:05;100123.25;;;10.88;80.11
74578;BME280;63173;49.086;33.418;2023-04-25T00:35:30;100117.50;;;10.89;79.46
74578;BME280;63173;49.086;33.418;2023-04-25T00:37:56;100117.50;;;10.89;78.59
74578;BME280;63173;49.086;33.418;2023-04-25T00:40:21;100118.16;;;10.81;80.94
74578;BME280;63173;49.086;33.418;2023-04-25T00:42:47;100110.53;;;10.83;81.07
74578;BME280;63173;49.086;33.418;2023-04-25T00:45:14;100104.94;;;10.75;79.60
74578;BME280;63173;49.086;33.418;2023-04-25T00:47:41;100108.44;;;10.75;80.46
74578;BME280;63173;49.086;33.418;2023-04-25T00:50:07;100109.91;;;10.68;79.95
74578;BME280;63173;49.086;33.418;2023-04-25T00:52:33;100103.25;;;10.36;82.09
74578;BME280;63173;49.086;33.418;2023-04-25T00:54:59;100102.63;;;10.21;85.43
74578;BME280;63173;49.086;33.418;2023-04-25T00:57:25;100100.44;;;10.23;84.93
74578;BME280;63173;49.086;33.418;2023-04-25T00:59:51;100099.78;;;10.31;84.55
74578;BME280;63173;49.086;33.418;2023-04-25T01:02:17;100098.91;;;10.35;85.66
74578;BME280;63173;49.086;33.418;2023-04-25T01:04:42;100102.31;;;10.46;85.67
74578;BME280;63173;49.086;33.418;2023-04-25T01:07:09;100092.09;;;10.38;85.49
74578;BME280;63173;49.086;33.418;2023-04-25T01:09:35;100097.13;;;10.50;85.51
74578;BME280;63173;49.086;33.418;2023-04-25T01:12:00;100100.88;;;10.30;86.20
74578;BME280;63173;49.086;33.418;2023-04-25T01:14:27;100092.22;;;10.28;85.21
74578;BME280;63173;49.086;33.418;2023-04-25T01:16:52;100092.56;;;10.21;86.60
74578;BME280;63173;49.086;33.418;2023-04-25T01:19:19;100100.19;;;10.19;86.11
74578;BME280;63173;49.086;33.418;2023-04-25T01:21:45;100094.06;;;10.32;88.08
74578;BME280;63173;49.086;33.418;2023-04-25T01:24:11;100089.81;;;9.98;90.89
74578;BME280;63173;49.086;33.418;2023-04-25T01:26:37;100087.97;;;9.93;90.88
74578;BME280;63173;49.086;33.418;2023-04-25T01:29:07;100078.78;;;9.89;91.66
74578;BME280;63173;49.086;33.418;2023-04-25T01:31:34;100078.94;;;9.74;93.85
74578;BME280;63173;49.086;33.418;2023-04-25T01:34:00;100089.41;;;9.57;94.73
74578;BME280;63173;49.086;33.418;2023-04-25T01:36:26;100081.28;;;9.57;97.59
74578;BME280;63173;49.086;33.418;2023-04-25T01:38:52;100080.75;;;9.55;97.68
74578;BME280;63173;49.086;33.418;2023-04-25T01:41:18;100077.97;;;9.65;96.23
74578;BME280;63173;49.086;33.418;2023-04-25T01:43:44;100076.31;;;9.64;96.13
74578;BME280;63173;49.086;33.418;2023-04-25T01:46:11;100078.22;;;9.64;96.38
74578;BME280;63173;49.086;33.418;2023-04-25T01:48:37;100070.13;;;9.59;97.89
74578;BME280;63173;49.086;33.418;2023-04-25T01:51:02;100068.66;;;9.71;97.80
74578;BME280;63173;49.086;33.418;2023-04-25T01:53:28;100061.53;;;9.80;96.85
74578;BME280;63173;49.086;33.418;2023-04-25T01:55:55;100061.38;;;9.67;98.19
74578;BME280;63173;49.086;33.418;2023-04-25T01:58:20;100065.00;;;9.57;98.70
74578;BME280;63173;49.086;33.418;2023-04-25T02:00:46;100056.81;;;9.62;99.31
74578;BME280;63173;49.086;33.418;2023-04-25T02:03:11;100070.91;;;9.64;97.74
74578;BME280;63173;49.086;33.418;2023-04-25T02:05:38;100056.25;;;9.65;97.15
74578;BME280;63173;49.086;33.418;2023-04-25T02:08:05;100061.09;;;9.68;98.71
74578;BME280;63173;49.086;33.418;2023-04-25T02:10:31;100068.69;;;9.37;99.67
74578;BME280;63173;49.086;33.418;2023-04-25T02:12:57;100064.84;;;9.43;99.66
74578;BME280;63173;49.086;33.418;2023-04-25T02:15:23;100063.72;;;9.49;99.31
74578;BME280;63173;49.086;33.418;2023-04-25T02:17:48;100061.69;;;9.65;100.00
74578;BME280;63173;49.086;33.418;2023-04-25T02:20:14;100065.69;;;9.73;98.46
74578;BME280;63173;49.086;33.418;2023-04-25T02:22:41;100062.75;;;9.64;97.86
74578;BME280;63173;49.086;33.418;2023-04-25T02:25:08;100069.00;;;9.36;100.00
74578;BME280;63173;49.086;33.418;2023-04-25T02:27:34;100068.75;;;9.32;100.00
74578;BME280;63173;49.086;33.418;2023-04-25T02:30:00;100067.94;;;9.32;99.19
74578;BME280;63173;49.086;33.418;2023-04-25T02:32:26;100069.47;;;9.09;99.09
74578;BME280;63173;49.086;33.418;2023-04-25T02:34:52;100065.63;;;9.15;99.83
74578;BME280;63173;49.086;33.418;2023-04-25T02:37:17;100067.75;;;9.23;99.07
74578;BME280;63173;49.086;33.418;2023-04-25T02:39:43;100066.88;;;9.28;98.86
74578;BME280;63173;49.086;33.418;2023-04-25T02:42:08;100074.47;;;9.26;99.43
74578;BME280;63173;49.086;33.418;2023-04-25T02:44:34;100074.13;;;9.37;98.43
74578;BME280;63173;49.086;33.418;2023-04-25T02:46:59;100071.66;;;9.41;97.00
74578;BME280;63173;49.086;33.418;2023-04-25T02:49:25;100061.16;;;9.34;97.43
74578;BME280;63173;49.086;33.418;2023-04-25T02:51:50;100071.75;;;9.31;95.79
74578;BME280;63173;49.086;33.418;2023-04-25T02:54:15;100064.66;;;9.01;95.67
74578;BME280;63173;49.086;33.418;2023-04-25T02:56:41;100066.81;;;9.04;96.76
74578;BME280;63173;49.086;33.418;2023-04-25T02:59:06;100065.88;;;9.19;96.53
74578;BME280;63173;49.086;33.418;2023-04-25T03:01:32;100058.06;;;9.12;97.94
74578;BME280;63173;49.086;33.418;2023-04-25T03:03:57;100060.75;;;9.17;98.17
74578;BME280;63173;49.086;33.418;2023-04-25T03:06:22;100063.34;;;9.27;96.88
74578;BME280;63173;49.086;33.418;2023-04-25T03:08:48;100065.22;;;9.32;96.93
74578;BME280;63173;49.086;33.418;2023-04-25T03:11:13;100061.38;;;9.38;97.85
74578;BME280;63173;49.086;33.418;2023-04-25T03:13:39;100071.03;;;9.49;97.92
74578;BME280;63173;49.086;33.418;2023-04-25T03:16:04;100066.31;;;9.60;97.79
74578;BME280;63173;49.086;33.418;2023-04-25T03:18:30;100059.69;;;9.13;97.43
74578;BME280;63173;49.086;33.418;2023-04-25T03:20:56;100071.66;;;9.41;98.92
74578;BME280;63173;49.086;33.418;2023-04-25T03:23:21;100069.22;;;9.39;97.37
74578;BME280;63173;49.086;33.418;2023-04-25T03:25:46;100070.50;;;9.47;97.64
74578;BME280;63173;49.086;33.418;2023-04-25T03:28:12;100067.13;;;9.60;96.24
74578;BME280;63173;49.086;33.418;2023-04-25T03:30:37;100057.63;;;9.63;96.01
74578;BME280;63173;49.086;33.418;2023-04-25T03:33:03;100066.28;;;9.65;94.71
74578;BME280;63173;49.086;33.418;2023-04-25T03:35:28;100069.50;;;9.38;93.64
74578;BME280;63173;49.086;33.418;2023-04-25T03:37:54;100067.53;;;9.15;95.26
74578;BME280;63173;49.086;33.418;2023-04-25T03:40:19;100062.63;;;9.50;95.35
74578;BME280;63173;49.086;33.418;2023-04-25T03:42:45;100054.91;;;9.63;93.35
74578;BME280;63173;49.086;33.418;2023-04-25T03:45:10;100059.47;;;9.67;93.69
74578;BME280;63173;49.086;33.418;2023-04-25T03:47:36;100060.88;;;9.65;91.63
74578;BME280;63173;49.086;33.418;2023-04-25T03:50:01;100056.25;;;9.65;93.22
74578;BME280;63173;49.086;33.418;2023-04-25T03:52:28;100051.53;;;9.76;93.52
74578;BME280;63173;49.086;33.418;2023-04-25T03:54:53;100056.84;;;9.86;91.63
74578;BME280;63173;49.086;33.418;2023-04-25T03:57:18;100058.16;;;9.88;90.91
74578;BME280;63173;49.086;33.418;2023-04-25T03:59:44;100057.53;;;9.96;92.15
74578;BME280;63173;49.086;33.418;2023-04-25T04:02:10;100059.63;;;10.04;91.21
74578;BME280;63173;49.086;33.418;2023-04-25T04:04:35;100062.31;;;10.09;91.15
74578;BME280;63173;49.086;33.418;2023-04-25T04:07:01;100053.84;;;10.16;91.22
74578;BME280;63173;49.086;33.418;2023-04-25T04:09:27;100056.78;;;10.19;88.94
74578;BME280;63173;49.086;33.418;2023-04-25T04:11:53;100062.13;;;10.24;89.28
74578;BME280;63173;49.086;33.418;2023-04-25T04:14:18;100054.50;;;10.26;89.29
74578;BME280;63173;49.086;33.418;2023-04-25T04:16:43;100060.34;;;10.38;89.11
74578;BME280;63173;49.086;33.418;2023-04-25T04:19:09;100057.84;;;10.42;87.69
74578;BME280;63173;49.086;33.418;2023-04-25T04:21:34;100047.28;;;10.40;88.90
74578;BME280;63173;49.086;33.418;2023-04-25T04:24:00;100053.50;;;10.41;86.41
74578;BME280;63173;49.086;33.418;2023-04-25T04:26:25;100043.38;;;10.47;87.25
74578;BME280;63173;49.086;33.418;2023-04-25T04:28:52;100042.22;;;10.53;86.59
74578;BME280;63173;49.086;33.418;2023-04-25T04:31:22;100048.63;;;10.62;86.95
74578;BME280;63173;49.086;33.418;2023-04-25T04:33:47;100042.16;;;10.76;85.51
74578;BME280;63173;49.086;33.418;2023-04-25T04:36:13;100040.41;;;10.85;84.04
74578;BME280;63173;49.086;33.418;2023-04-25T04:38:39;100040.09;;;10.87;84.16
74578;BME280;63173;49.086;33.418;2023-04-25T04:41:06;100031.28;;;10.95;83.71
74578;BME280;63173;49.086;33.418;2023-04-25T04:43:31;100042.00;;;11.05;83.63
74578;BME280;63173;49.086;33.418;2023-04-25T04:46:00;100035.81;;;11.18;83.90
74578;BME280;63173;49.086;33.418;2023-04-25T04:48:25;100025.97;;;11.03;83.70
74578;BME280;63173;49.086;33.418;2023-04-25T04:50:51;100027.22;;;11.11;83.53
74578;BME280;63173;49.086;33.418;2023-04-25T04:53:16;100031.22;;;11.32;82.65
74578;BME280;63173;49.086;33.418;2023-04-25T04:55:42;100035.97;;;11.40;82.66
74578;BME280;63173;49.086;33.418;2023-04-25T04:58:08;100026.84;;;11.50;82.56
74578;BME280;63173;49.086;33.418;2023-04-25T05:00:33;100024.44;;;11.62;82.07
74578;BME280;63173;49.086;33.418;2023-04-25T05:02:59;100025.97;;;11.68;82.72
74578;BME280;63173;49.086;33.418;2023-04-25T05:05:25;100024.91;;;11.82;82.51
74578;BME280;63173;49.086;33.418;2023-04-25T05:07:50;100027.91;;;11.94;82.32
74578;BME280;63173;49.086;33.418;2023-04-25T05:10:17;100025.31;;;12.03;82.33
74578;BME280;63173;49.086;33.418;2023-04-25T05:12:42;100024.00;;;12.14;81.34
74578;BME280;63173;49.086;33.418;2023-04-25T05:15:08;100024.69;;;12.19;81.39
74578;BME280;63173;49.086;33.418;2023-04-25T05:17:33;100019.94;;;12.25;79.79
74578;BME280;63173;49.086;33.418;2023-04-25T05:19:59;100019.81;;;12.44;79.77
74578;BME280;63173;49.086;33.418;2023-04-25T05:22:25;100027.59;;;12.50;78.32
74578;BME280;63173;49.086;33.418;2023-04-25T05:24:50;100025.06;;;12.54;77.83
74578;BME280;63173;49.086;33.418;2023-04-25T05:27:17;100023.41;;;12.66;77.45
74578;BME280;63173;49.086;33.418;2023-04-25T05:29:43;100025.53;;;12.69;76.19
74578;BME280;63173;49.086;33.418;2023-04-25T05:32:09;100024.50;;;12.79;75.74
74578;BME280;63173;49.086;33.418;2023-04-25T05:34:34;100017.81;;;12.85;76.03
74578;BME280;63173;49.086;33.418;2023-04-25T05:37:00;100012.22;;;13.03;74.97
74578;BME280;63173;49.086;33.418;2023-04-25T05:39:26;100011.09;;;13.04;76.41
74578;BME280;63173;49.086;33.418;2023-04-25T05:41:51;100005.94;;;13.25;75.21
74578;BME280;63173;49.086;33.418;2023-04-25T05:44:17;100010.03;;;13.36;74.51
74578;BME280;63173;49.086;33.418;2023-04-25T05:46:43;100010.75;;;13.50;74.72
74578;BME280;63173;49.086;33.418;2023-04-25T05:49:08;99999.44;;;13.65;72.11
74578;BME280;63173;49.086;33.418;2023-04-25T05:51:34;99992.66;;;13.63;71.67
74578;BME280;63173;49.086;33.418;2023-04-25T05:53:59;99993.16;;;13.65;73.78
74578;BME280;63173;49.086;33.418;2023-04-25T05:56:24;99996.78;;;13.82;72.05
74578;BME280;63173;49.086;33.418;2023-04-25T05:58:50;99997.13;;;13.89;71.96
74578;BME280;63173;49.086;33.418;2023-04-25T06:01:16;99998.91;;;13.94;72.76
74578;BME280;63173;49.086;33.418;2023-04-25T06:03:41;99990.25;;;14.00;70.99
74578;BME280;63173;49.086;33.418;2023-04-25T06:06:08;100001.06;;;14.05;70.82
74578;BME280;63173;49.086;33.418;2023-04-25T06:08:34;99995.47;;;14.19;70.58
74578;BME280;63173;49.086;33.418;2023-04-25T06:11:00;99998.53;;;14.26;71.76
74578;BME280;63173;49.086;33.418;2023-04-25T06:13:25;99999.25;;;14.49;70.18
74578;BME280;63173;49.086;33.418;2023-04-25T06:15:51;99996.38;;;14.62;66.98
74578;BME280;63173;49.086;33.418;2023-04-25T06:18:16;99992.69;;;14.75;68.01
74578;BME280;63173;49.086;33.418;2023-04-25T06:20:42;99989.63;;;14.77;68.90
74578;BME280;63173;49.086;33.418;2023-04-25T06:23:07;99990.75;;;14.67;69.21
74578;BME280;63173;49.086;33.418;2023-04-25T06:25:32;99989.31;;;14.87;70.14
74578;BME280;63173;49.086;33.418;2023-04-25T06:27:58;99987.69;;;15.03;68.32
74578;BME280;63173;49.086;33.418;2023-04-25T06:30:23;99985.13;;;14.98;68.33
74578;BME280;63173;49.086;33.418;2023-04-25T06:32:51;99989.59;;;15.11;67.72
74578;BME280;63173;49.086;33.418;2023-04-25T06:35:18;99988.47;;;15.21;66.66
74578;BME280;63173;49.086;33.418;2023-04-25T06:37:44;99979.94;;;15.22;66.74
74578;BME280;63173;49.086;33.418;2023-04-25T06:40:09;99981.19;;;15.33;65.33
74578;BME280;63173;49.086;33.418;2023-04-25T06:42:36;99981.38;;;15.45;64.07
74578;BME280;63173;49.086;33.418;2023-04-25T06:45:01;99984.72;;;15.59;64.76
74578;BME280;63173;49.086;33.418;2023-04-25T06:47:27;99979.66;;;15.70;63.71
74578;BME280;63173;49.086;33.418;2023-04-25T06:49:52;99984.06;;;15.62;62.21
74578;BME280;63173;49.086;33.418;2023-04-25T06:52:18;99984.78;;;15.80;62.73
74578;BME280;63173;49.086;33.418;2023-04-25T06:54:44;99981.25;;;15.71;63.30
74578;BME280;63173;49.086;33.418;2023-04-25T06:57:09;99985.13;;;16.08;60.66
74578;BME280;63173;49.086;33.418;2023-04-25T06:59:35;99980.06;;;16.18;60.81
74578;BME280;63173;49.086;33.418;2023-04-25T07:02:00;99990.06;;;16.23;60.79
74578;BME280;63173;49.086;33.418;2023-04-25T07:04:26;99987.22;;;16.11;59.34
74578;BME280;63173;49.086;33.418;2023-04-25T07:06:51;99983.28;;;16.20;61.24
74578;BME280;63173;49.086;33.418;2023-04-25T07:09:16;99991.94;;;16.60;60.25
74578;BME280;63173;49.086;33.418;2023-04-25T07:11:42;99984.13;;;16.41;58.97
74578;BME280;63173;49.086;33.418;2023-04-25T07:14:07;99986.94;;;16.33;58.55
74578;BME280;63173;49.086;33.418;2023-04-25T07:16:33;99986.09;;;16.12;58.31
74578;BME280;63173;49.086;33.418;2023-04-25T07:18:58;99982.09;;;16.30;55.99
74578;BME280;63173;49.086;33.418;2023-04-25T07:21:24;99973.97;;;16.71;54.79
74578;BME280;63173;49.086;33.418;2023-04-25T07:23:50;99978.25;;;16.80;54.57
74578;BME280;63173;49.086;33.418;2023-04-25T07:26:16;99982.06;;;16.88;54.32
74578;BME280;63173;49.086;33.418;2023-04-25T07:28:42;99977.31;;;16.76;55.21
74578;BME280;63173;49.086;33.418;2023-04-25T07:31:07;99979.22;;;16.97;55.54
74578;BME280;63173;49.086;33.418;2023-04-25T07:33:33;99967.97;;;17.22;54.76
74578;BME280;63173;49.086;33.418;2023-04-25T07:35:58;99982.63;;;17.14;53.46
74578;BME280;63173;49.086;33.418;2023-04-25T07:38:24;99978.06;;;16.98;53.14
74578;BME280;63173;49.086;33.418;2023-04-25T07:40:50;99984.56;;;16.93;53.27
74578;BME280;63173;49.086;33.418;2023-04-25T07:43:15;99981.03;;;16.92;52.99
74578;BME280;63173;49.086;33.418;2023-04-25T07:45:46;99979.34;;;17.00;53.27
74578;BME280;63173;49.086;33.418;2023-04-25T07:48:17;99968.09;;;17.14;53.28
74578;BME280;63173;49.086;33.418;2023-04-25T07:50:43;99971.31;;;17.48;51.86
74578;BME280;63173;49.086;33.418;2023-04-25T07:53:09;99962.53;;;17.34;53.25
74578;BME280;63173;49.086;33.418;2023-04-25T07:55:34;99965.84;;;17.72;51.86
74578;BME280;63173;49.086;33.418;2023-04-25T07:58:01;99963.31;;;18.04;50.40
74578;BME280;63173;49.086;33.418;2023-04-25T08:00:27;99961.72;;;17.91;51.33
74578;BME280;63173;49.086;33.418;2023-04-25T08:02:53;99959.31;;;17.89;50.44
74578;BME280;63173;49.086;33.418;2023-04-25T08:05:18;99964.91;;;17.56;50.98
74578;BME280;63173;49.086;33.418;2023-04-25T08:07:44;99963.25;;;17.43;49.39
74578;BME280;63173;49.086;33.418;2023-04-25T08:10:09;99963.22;;;17.31;50.24
74578;BME280;63173;49.086;33.418;2023-04-25T08:12:35;99962.03;;;17.53;49.91
74578;BME280;63173;49.086;33.418;2023-04-25T08:15:00;99957.84;;;17.79;49.75
74578;BME280;63173;49.086;33.418;2023-04-25T08:17:26;99956.56;;;18.25;48.33
74578;BME280;63173;49.086;33.418;2023-04-25T08:19:51;99953.53;;;18.66;46.69
74578;BME280;63173;49.086;33.418;2023-04-25T08:22:17;99956.81;;;18.08;46.53
74578;BME280;63173;49.086;33.418;2023-04-25T08:24:42;99952.69;;;18.14;47.55
74578;BME280;63173;49.086;33.418;2023-04-25T08:27:07;99951.56;;;18.03;47.82
74578;BME280;63173;49.086;33.418;2023-04-25T08:29:34;99943.06;;;17.72;48.19
74578;BME280;63173;49.086;33.418;2023-04-25T08:32:00;99943.97;;;18.12;47.29
74578;BME280;63173;49.086;33.418;2023-04-25T08:34:26;99946.72;;;17.76;49.14
74578;BME280;63173;49.086;33.418;2023-04-25T08:36:51;99949.84;;;18.11;47.31
74578;BME280;63173;49.086;33.418;2023-04-25T08:39:17;99945.47;;;17.85;47.53
74578;BME280;63173;49.086;33.418;2023-04-25T08:41:42;99939.06;;;17.94;47.51
74578;BME280;63173;49.086;33.418;2023-04-25T08:44:10;99936.25;;;18.66;46.40
74578;BME280;63173;49.086;33.418;2023-04-25T08:46:38;99935.06;;;18.67;46.07
74578;BME280;63173;49.086;33.418;2023-04-25T08:49:04;99927.56;;;18.79;45.32
74578;BME280;63173;49.086;33.418;2023-04-25T08:51:32;99926.34;;;17.89;47.04
74578;BME280;63173;49.086;33.418;2023-04-25T08:54:09;99930.91;;;18.33;46.22
74578;BME280;63173;49.086;33.418;2023-04-25T08:56:39;99924.44;;;18.65;45.38
74578;BME280;63173;49.086;33.418;2023-04-25T08:59:05;99921.59;;;18.62;44.63
74578;BME280;63173;49.086;33.418;2023-04-25T09:01:34;99914.72;;;19.70;44.13
74578;BME280;63173;49.086;33.418;2023-04-25T09:04:00;99913.16;;;19.88;43.50
74578;BME280;63173;49.086;33.418;2023-04-25T09:06:25;99911.88;;;19.51;43.94
74578;BME280;63173;49.086;33.418;2023-04-25T09:08:52;99913.28;;;19.60;42.43
74578;BME280;63173;49.086;33.418;2023-04-25T09:11:19;99901.09;;;19.46;42.23
74578;BME280;63173;49.086;33.418;2023-04-25T09:13:45;99903.78;;;20.24;41.83
74578;BME280;63173;49.086;33.418;2023-04-25T09:16:10;99903.81;;;19.30;43.65
74578;BME280;63173;49.086;33.418;2023-04-25T09:18:37;99899.38;;;19.88;43.09
74578;BME280;63173;49.086;33.418;2023-04-25T09:21:07;99906.00;;;20.53;41.90
74578;BME280;63173;49.086;33.418;2023-04-25T09:23:59;99893.34;;;20.33;40.66
74578;BME280;63173;49.086;33.418;2023-04-25T09:26:25;99893.44;;;20.75;40.22
74578;BME280;63173;49.086;33.418;2023-04-25T09:29:04;99894.38;;;20.82;42.64
74578;BME280;63173;49.086;33.418;2023-04-25T09:31:33;99899.66;;;20.33;42.72
74578;BME280;63173;49.086;33.418;2023-04-25T09:33:59;99897.28;;;20.16;42.18
74578;BME280;63173;49.086;33.418;2023-04-25T09:36:27;99890.97;;;20.50;42.34
74578;BME280;63173;49.086;33.418;2023-04-25T09:38:53;99892.44;;;20.63;43.04
74578;BME280;63173;49.086;33.418;2023-04-25T09:41:27;99891.69;;;20.28;42.71
74578;BME280;63173;49.086;33.418;2023-04-25T09:43:56;99893.53;;;20.59;41.70
74578;BME280;63173;49.086;33.418;2023-04-25T09:46:23;99891.34;;;20.49;42.69
74578;BME280;63173;49.086;33.418;2023-04-25T09:48:50;99890.78;;;20.59;43.32
74578;BME280;63173;49.086;33.418;2023-04-25T09:51:16;99887.03;;;20.71;41.94
74578;BME280;63173;49.086;33.418;2023-04-25T09:53:43;99883.06;;;20.68;43.65
74578;BME280;63173;49.086;33.418;2023-04-25T09:56:10;99884.50;;;20.62;43.50
74578;BME280;63173;49.086;33.418;2023-04-25T09:58:38;99884.94;;;20.64;43.96
74578;BME280;63173;49.086;33.418;2023-04-25T10:01:09;99873.16;;;21.05;42.19
74578;BME280;63173;49.086;33.418;2023-04-25T10:03:36;99864.06;;;20.86;43.81
74578;BME280;63173;49.086;33.418;2023-04-25T10:06:07;99867.53;;;21.43;40.78
74578;BME280;63173;49.086;33.418;2023-04-25T10:08:34;99863.22;;;21.69;40.14
74578;BME280;63173;49.086;33.418;2023-04-25T10:11:05;99862.75;;;21.86;40.85
74578;BME280;63173;49.086;33.418;2023-04-25T10:13:31;99852.50;;;21.90;39.39
74578;BME280;63173;49.086;33.418;2023-04-25T10:15:58;99862.06;;;21.96;39.11
74578;BME280;63173;49.086;33.418;2023-04-25T10:18:25;99862.59;;;22.05;39.62
74578;BME280;63173;49.086;33.418;2023-04-25T10:20:53;99858.28;;;22.37;38.27
74578;BME280;63173;49.086;33.418;2023-04-25T10:23:20;99861.44;;;21.80;38.69
74578;BME280;63173;49.086;33.418;2023-04-25T10:25:45;99858.88;;;21.94;38.83
74578;BME280;63173;49.086;33.418;2023-04-25T10:28:11;99855.13;;;22.35;38.18
74578;BME280;63173;49.086;33.418;2023-04-25T10:30:36;99855.75;;;21.73;37.02
74578;BME280;63173;49.086;33.418;2023-04-25T10:33:16;99858.88;;;22.20;35.85
74578;BME280;63173;49.086;33.418;2023-04-25T10:35:44;99853.47;;;22.01;35.90
74578;BME280;63173;49.086;33.418;2023-04-25T10:38:11;99844.06;;;22.35;36.40
74578;BME280;63173;49.086;33.418;2023-04-25T10:40:38;99843.50;;;22.85;35.05
74578;BME280;63173;49.086;33.418;2023-04-25T10:43:36;99842.53;;;23.07;33.96
74578;BME280;63173;49.086;33.418;2023-04-25T10:48:47;99851.22;;;23.43;31.39
74578;BME280;63173;49.086;33.418;2023-04-25T10:53:44;99842.63;;;24.09;30.60
74578;BME280;63173;49.086;33.418;2023-04-25T10:56:19;99838.63;;;24.03;31.52
74578;BME280;63173;49.086;33.418;2023-04-25T10:58:45;99836.69;;;23.56;32.46
74578;BME280;63173;49.086;33.418;2023-04-25T11:01:16;99842.19;;;23.12;32.50
74578;BME280;63173;49.086;33.418;2023-04-25T11:03:44;99838.28;;;23.61;30.99
74578;BME280;63173;49.086;33.418;2023-04-25T11:08:53;99842.53;;;23.07;28.36
74578;BME280;63173;49.086;33.418;2023-04-25T11:11:19;99830.94;;;23.31;29.15
74578;BME280;63173;49.086;33.418;2023-04-25T11:13:48;99832.97;;;23.42;29.20
74578;BME280;63173;49.086;33.418;2023-04-25T11:16:14;99832.91;;;22.94;28.49
74578;BME280;63173;49.086;33.418;2023-04-25T11:18:43;99833.78;;;22.35;27.87
74578;BME280;63173;49.086;33.418;2023-04-25T11:21:10;99827.84;;;22.63;29.21
74578;BME280;63173;49.086;33.418;2023-04-25T11:23:36;99830.78;;;22.48;27.45
74578;BME280;63173;49.086;33.418;2023-04-25T11:26:02;99834.00;;;22.53;27.35
74578;BME280;63173;49.086;33.418;2023-04-25T11:28:28;99823.59;;;22.43;26.95
74578;BME280;63173;49.086;33.418;2023-04-25T11:30:53;99822.66;;;22.62;27.65
74578;BME280;63173;49.086;33.418;2023-04-25T11:33:23;99814.97;;;22.48;25.96
74578;BME280;63173;49.086;33.418;2023-04-25T11:35:49;99822.63;;;22.58;27.13
74578;BME280;63173;49.086;33.418;2023-04-25T11:38:15;99824.63;;;22.98;27.58
74578;BME280;63173;49.086;33.418;2023-04-25T11:40:40;99825.63;;;23.19;26.63
74578;BME280;63173;49.086;33.418;2023-04-25T11:43:06;99821.44;;;23.32;26.62
74578;BME280;63173;49.086;33.418;2023-04-25T11:45:32;99818.91;;;23.20;27.19
74578;BME280;63173;49.086;33.418;2023-04-25T11:47:57;99817.00;;;23.28;26.20
74578;BME280;63173;49.086;33.418;2023-04-25T11:50:23;99807.75;;;23.54;26.69
74578;BME280;63173;49.086;33.418;2023-04-25T11:52:48;99812.84;;;23.04;27.81
74578;BME280;63173;49.086;33.418;2023-04-25T11:55:17;99807.00;;;22.76;28.63
74578;BME280;63173;49.086;33.418;2023-04-25T11:57:44;99809.56;;;22.59;28.75
74578;BME280;63173;49.086;33.418;2023-04-25T12:02:36;99794.75;;;22.77;29.04
74578;BME280;63173;49.086;33.418;2023-04-25T12:05:02;99799.22;;;23.83;27.14
74578;BME280;63173;49.086;33.418;2023-04-25T12:07:31;99792.09;;;23.82;27.42
74578;BME280;63173;49.086;33.418;2023-04-25T12:09:56;99794.34;;;23.66;27.56
74578;BME280;63173;49.086;33.418;2023-04-25T12:12:27;99785.84;;;23.38;27.96
74578;BME280;63173;49.086;33.418;2023-04-25T12:14:52;99789.09;;;23.51;28.33
74578;BME280;63173;49.086;33.418;2023-04-25T12:17:20;99779.06;;;23.35;27.48
74578;BME280;63173;49.086;33.418;2023-04-25T12:19:47;99784.28;;;23.41;28.50
74578;BME280;63173;49.086;33.418;2023-04-25T12:22:21;99778.16;;;23.72;27.10
74578;BME280;63173;49.086;33.418;2023-04-25T12:24:46;99785.19;;;24.20;27.12
74578;BME280;63173;49.086;33.418;2023-04-25T12:27:14;99771.66;;;23.47;28.11
74578;BME280;63173;49.086;33.418;2023-04-25T12:29:54;99776.69;;;23.88;28.65
74578;BME280;63173;49.086;33.418;2023-04-25T12:32:21;99762.56;;;24.11;26.18
74578;BME280;63173;49.086;33.418;2023-04-25T12:34:46;99774.75;;;23.99;26.83
74578;BME280;63173;49.086;33.418;2023-04-25T12:37:12;99764.56;;;24.21;27.38
74578;BME280;63173;49.086;33.418;2023-04-25T12:39:38;99757.22;;;24.81;25.68
74578;BME280;63173;49.086;33.418;2023-04-25T12:42:03;99751.69;;;24.85;26.14
74578;BME280;63173;49.086;33.418;2023-04-25T12:44:29;99763.50;;;24.61;24.99
74578;BME280;63173;49.086;33.418;2023-04-25T12:46:54;99761.88;;;24.46;24.44
74578;BME280;63173;49.086;33.418;2023-04-25T12:49:20;99753.94;;;24.37;24.79
74578;BME280;63173;49.086;33.418;2023-04-25T12:51:46;99747.25;;;24.70;24.77
74578;BME280;63173;49.086;33.418;2023-04-25T12:54:12;99739.41;;;25.07;24.96